createdAt,value
2022-09-28T00:01:18.866Z,2.55
2022-09-28T00:03:47.876Z,2.60
2022-09-28T00:06:19.421Z,2.53
2022-09-28T00:08:50.124Z,3.92
2022-09-28T00:11:21.768Z,2.97
2022-09-28T00:13:52.557Z,2.70
2022-09-28T00:16:23.255Z,3.05
2022-09-28T00:18:52.326Z,2.80
2022-09-28T00:21:22.765Z,2.88
2022-09-28T00:24:11.345Z,3.15
2022-09-28T00:26:42.647Z,3.17
2022-09-28T00:29:18.214Z,3.40
2022-09-28T00:31:46.733Z,3.03
2022-09-28T00:34:15.816Z,3.60
2022-09-28T00:36:46.715Z,3.20
2022-09-28T00:39:16.226Z,3.83
2022-09-28T00:41:46.781Z,3.60
2022-09-28T00:44:37.903Z,3.05
2022-09-28T00:47:21.072Z,3.50
2022-09-28T00:49:54.361Z,3.55
2022-09-28T00:52:27.882Z,3.75
2022-09-28T00:54:58.455Z,3.88
2022-09-28T00:57:28.756Z,3.08
2022-09-28T00:59:57.461Z,3.40
2022-09-28T01:02:25.640Z,2.88
2022-09-28T01:04:54.274Z,2.92
2022-09-28T01:07:23.614Z,2.90
2022-09-28T01:09:54.013Z,3.20
2022-09-28T01:12:22.091Z,3.17
2022-09-28T01:14:53.442Z,2.72
2022-09-28T01:17:27.210Z,2.75
2022-09-28T01:20:19.896Z,2.83
2022-09-28T01:23:35.823Z,3.58
2022-09-28T01:26:44.521Z,3.17
2022-09-28T01:29:20.556Z,3.40
2022-09-28T01:31:56.679Z,2.83
2022-09-28T01:34:30.596Z,2.90
2022-09-28T01:37:02.763Z,3.33
2022-09-28T01:39:35.028Z,3.17
2022-09-28T01:42:09.316Z,3.75
2022-09-28T01:44:42.350Z,3.50
2022-09-28T01:47:13.484Z,3.70
2022-09-28T01:49:47.129Z,4.07
2022-09-28T01:52:20.256Z,4.03
2022-09-28T01:54:53.626Z,4.03
2022-09-28T01:57:27.032Z,4.22
2022-09-28T02:00:02.332Z,3.58
2022-09-28T02:02:35.339Z,3.72
2022-09-28T02:05:09.380Z,3.72
2022-09-28T02:07:42.512Z,3.80
2022-09-28T02:10:15.834Z,3.28
2022-09-28T02:12:49.692Z,3.50
2022-09-28T02:15:24.379Z,3.38
2022-09-28T02:17:52.917Z,3.58
2022-09-28T02:20:24.088Z,3.35
2022-09-28T02:22:55.793Z,3.38
2022-09-28T02:25:31.939Z,3.22
2022-09-28T02:28:03.049Z,3.00
2022-09-28T02:30:34.739Z,2.70
2022-09-28T02:33:08.550Z,2.90
2022-09-28T02:35:36.806Z,3.08
2022-09-28T02:38:05.079Z,2.60
2022-09-28T02:40:34.794Z,2.10
2022-09-28T02:43:14.914Z,2.45
2022-09-28T02:46:06.974Z,2.10
2022-09-28T02:49:10.520Z,1.75
2022-09-28T02:51:59.000Z,2.40
2022-09-28T02:54:52.666Z,2.00
2022-09-28T02:57:32.850Z,1.60
2022-09-28T03:00:08.299Z,1.67
2022-09-28T03:02:45.286Z,1.98
2022-09-28T03:05:21.845Z,1.98
2022-09-28T03:07:58.491Z,1.80
2022-09-28T03:10:32.120Z,1.98
2022-09-28T03:13:00.691Z,2.00
2022-09-28T03:15:31.995Z,2.50
2022-09-28T03:18:00.729Z,2.35
2022-09-28T03:20:30.252Z,2.40
2022-09-28T03:23:23.332Z,2.40
2022-09-28T03:25:46.663Z,2.47
2022-09-28T03:28:14.778Z,2.25
2022-09-28T03:30:44.249Z,1.88
2022-09-28T03:33:12.363Z,2.05
2022-09-28T03:35:40.503Z,2.08
2022-09-28T03:38:08.575Z,2.25
2022-09-28T03:40:36.745Z,2.53
2022-09-28T03:43:04.877Z,1.80
2022-09-28T03:45:33.153Z,1.52
2022-09-28T03:48:02.898Z,1.33
2022-09-28T03:50:30.932Z,1.25
2022-09-28T03:53:03.944Z,1.13
2022-09-28T03:55:32.131Z,1.10
2022-09-28T03:58:00.377Z,1.25
2022-09-28T04:00:28.748Z,1.15
2022-09-28T04:02:56.961Z,1.20
2022-09-28T04:05:26.450Z,1.20
2022-09-28T04:07:57.831Z,1.13
2022-09-28T04:10:26.804Z,1.30
2022-09-28T04:12:56.535Z,2.03
2022-09-28T04:15:25.166Z,1.90
2022-09-28T04:17:55.733Z,1.50
2022-09-28T04:20:23.915Z,1.40
2022-09-28T04:22:53.405Z,1.52
2022-09-28T04:25:21.761Z,3.05
2022-09-28T04:28:08.085Z,2.70
2022-09-28T04:30:36.249Z,2.30
2022-09-28T04:33:04.437Z,1.75
2022-09-28T04:35:32.802Z,1.40
2022-09-28T04:38:02.328Z,1.60
2022-09-28T04:40:30.511Z,1.38
2022-09-28T04:42:58.873Z,1.55
2022-09-28T04:45:27.518Z,1.75
2022-09-28T04:47:55.897Z,1.67
2022-09-28T04:50:23.995Z,1.20
2022-09-28T04:52:52.587Z,2.03
2022-09-28T04:55:22.055Z,1.83
2022-09-28T04:57:50.196Z,1.55
2022-09-28T05:00:18.350Z,1.27
2022-09-28T05:02:46.582Z,1.50
2022-09-28T05:05:14.884Z,1.80
2022-09-28T05:07:43.014Z,1.65
2022-09-28T05:10:11.262Z,1.73
2022-09-28T05:12:40.758Z,3.25
2022-09-28T05:15:09.487Z,3.28
2022-09-28T05:17:37.548Z,1.73
2022-09-28T05:20:06.502Z,1.83
2022-09-28T05:22:34.818Z,1.40
2022-09-28T05:25:03.389Z,1.38
2022-09-28T05:27:31.527Z,1.90
2022-09-28T05:30:00.936Z,1.90
2022-09-28T05:32:29.214Z,1.23
2022-09-28T05:34:57.562Z,1.40
2022-09-28T05:37:25.772Z,1.98
2022-09-28T05:39:53.988Z,1.63
2022-09-28T05:42:22.061Z,1.63
2022-09-28T05:44:50.206Z,1.55
2022-09-28T05:47:19.701Z,1.50
2022-09-28T05:49:48.006Z,1.85
2022-09-28T05:52:16.308Z,1.70
2022-09-28T05:54:44.485Z,3.33
2022-09-28T05:57:12.909Z,3.95
2022-09-28T05:59:41.051Z,3.15
2022-09-28T06:02:11.135Z,2.92
2022-09-28T06:04:40.828Z,5.82
2022-09-28T06:07:08.932Z,3.13
2022-09-28T06:09:36.971Z,1.60
2022-09-28T06:12:05.129Z,1.75
2022-09-28T06:14:33.192Z,1.52
2022-09-28T06:17:01.301Z,1.27
2022-09-28T06:19:29.481Z,1.02
2022-09-28T06:21:59.524Z,1.52
2022-09-28T06:24:27.691Z,1.52
2022-09-28T06:26:55.795Z,1.25
2022-09-28T06:29:24.082Z,1.13
2022-09-28T06:31:52.555Z,0.90
2022-09-28T06:34:21.507Z,1.17
2022-09-28T06:36:49.702Z,1.10
2022-09-28T06:39:19.311Z,1.05
2022-09-28T06:41:47.687Z,0.77
2022-09-28T06:44:15.854Z,1.40
2022-09-28T06:46:44.091Z,1.77
2022-09-28T06:49:14.198Z,3.03
2022-09-28T06:51:47.687Z,2.60
2022-09-28T06:54:16.464Z,1.60
2022-09-28T06:56:46.069Z,1.42
2022-09-28T06:59:14.279Z,1.30
2022-09-28T07:01:42.458Z,1.52
2022-09-28T07:04:10.713Z,3.25
2022-09-28T07:06:39.303Z,6.72
2022-09-28T07:09:28.705Z,3.55
2022-09-28T07:11:57.026Z,2.70
2022-09-28T07:14:46.260Z,1.70
2022-09-28T07:17:14.787Z,1.67
2022-09-28T07:19:43.267Z,1.63
2022-09-28T07:22:18.843Z,1.38
2022-09-28T07:24:48.742Z,1.60
2022-09-28T07:27:18.204Z,2.03
2022-09-28T07:29:46.366Z,1.25
2022-09-28T07:32:14.536Z,1.45
2022-09-28T07:34:43.909Z,1.50
2022-09-28T07:37:13.330Z,1.40
2022-09-28T07:39:59.241Z,1.20
2022-09-28T07:42:30.160Z,1.33
2022-09-28T07:44:58.385Z,1.40
2022-09-28T07:47:33.857Z,1.23
2022-09-28T07:50:03.422Z,1.25
2022-09-28T07:52:35.258Z,1.40
2022-09-28T07:55:07.230Z,1.80
2022-09-28T07:57:36.965Z,1.60
2022-09-28T08:00:08.165Z,1.40
2022-09-28T08:02:36.513Z,1.50
2022-09-28T08:05:05.095Z,1.52
2022-09-28T08:07:34.547Z,1.40
2022-09-28T08:10:02.611Z,1.30
2022-09-28T08:12:30.822Z,1.13
2022-09-28T08:15:00.759Z,1.48
2022-09-28T08:17:29.212Z,1.58
2022-09-28T08:20:14.428Z,1.40
2022-09-28T08:22:42.559Z,1.63
2022-09-28T08:25:10.722Z,1.48
2022-09-28T08:27:38.958Z,1.55
2022-09-28T08:30:10.029Z,1.35
2022-09-28T08:32:38.157Z,1.20
2022-09-28T08:35:06.836Z,1.05
2022-09-28T08:37:34.895Z,1.00
2022-09-28T08:40:03.203Z,1.30
2022-09-28T08:42:35.774Z,1.10
2022-09-28T08:45:12.804Z,1.00
2022-09-28T08:48:08.043Z,0.98
2022-09-28T08:50:46.562Z,0.82
2022-09-28T08:53:28.523Z,0.75
2022-09-28T08:55:56.882Z,0.90
2022-09-28T08:58:30.381Z,1.10
2022-09-28T09:01:00.408Z,0.88
2022-09-28T09:03:33.761Z,1.33
2022-09-28T09:06:09.050Z,0.85
2022-09-28T09:08:50.054Z,0.85
2022-09-28T09:11:32.274Z,0.85
2022-09-28T09:14:22.926Z,0.93
2022-09-28T09:17:00.871Z,4.78
2022-09-28T09:19:36.780Z,1.27
2022-09-28T09:22:16.953Z,0.90
2022-09-28T09:24:50.995Z,0.73
2022-09-28T09:27:45.862Z,0.80
2022-09-28T09:30:20.102Z,0.80
2022-09-28T09:33:05.219Z,1.00
2022-09-28T09:36:08.278Z,1.63
2022-09-28T09:38:58.243Z,1.90
2022-09-28T09:41:39.714Z,1.92
2022-09-28T09:44:34.010Z,0.90
2022-09-28T09:47:08.131Z,0.70
2022-09-28T09:49:41.729Z,0.70
2022-09-28T09:52:17.875Z,0.80
2022-09-28T09:54:52.112Z,0.90
2022-09-28T09:57:24.701Z,0.88
2022-09-28T09:59:53.722Z,0.70
2022-09-28T10:02:26.369Z,0.70
2022-09-28T10:04:58.602Z,1.15
2022-09-28T10:07:30.714Z,0.90
2022-09-28T10:10:01.772Z,1.30
2022-09-28T10:12:31.097Z,1.30
2022-09-28T10:14:59.302Z,1.33
2022-09-28T10:17:27.910Z,1.38
2022-09-28T10:19:57.910Z,1.50
2022-09-28T10:22:28.851Z,1.30
2022-09-28T10:24:58.511Z,3.08
2022-09-28T10:27:30.696Z,3.20
2022-09-28T10:30:02.979Z,2.60
2022-09-28T10:32:40.113Z,2.20
2022-09-28T10:35:31.404Z,4.03
2022-09-28T10:38:03.436Z,2.00
2022-09-28T10:40:41.643Z,2.03
2022-09-28T10:43:19.507Z,2.00
2022-09-28T10:45:47.776Z,1.98
2022-09-28T10:48:20.635Z,1.60
2022-09-28T10:51:01.777Z,2.20
2022-09-28T10:53:29.831Z,4.57
2022-09-28T10:56:01.291Z,13.30
2022-09-28T10:58:34.061Z,6.43
2022-09-28T11:01:10.457Z,2.47
2022-09-28T11:03:49.969Z,2.00
2022-09-28T11:06:26.052Z,1.92
2022-09-28T11:08:56.023Z,1.75
2022-09-28T11:11:25.248Z,1.20
2022-09-28T11:13:55.446Z,1.70
2022-09-28T11:16:27.472Z,1.30
2022-09-28T11:18:56.059Z,1.25
2022-09-28T11:21:27.818Z,1.40
2022-09-28T11:24:05.821Z,1.23
2022-09-28T11:26:42.500Z,1.27
2022-09-28T11:29:22.225Z,1.13
2022-09-28T11:31:50.757Z,0.90
2022-09-28T11:34:36.507Z,1.00
2022-09-28T11:37:31.645Z,1.08
2022-09-28T11:40:09.787Z,1.30
2022-09-28T11:42:49.288Z,1.63
2022-09-28T11:45:33.536Z,1.30
2022-09-28T11:48:04.198Z,1.70
2022-09-28T11:50:49.545Z,1.52
2022-09-28T11:53:26.220Z,2.42
2022-09-28T11:55:59.724Z,1.83
2022-09-28T11:58:32.406Z,3.15
2022-09-28T12:01:08.670Z,5.55
2022-09-28T12:03:43.074Z,4.10
2022-09-28T12:06:17.136Z,2.90
2022-09-28T12:08:53.463Z,2.17
2022-09-28T12:11:26.385Z,2.08
2022-09-28T12:13:57.495Z,2.95
2022-09-28T12:19:20.310Z,1.10
2022-09-28T12:21:52.124Z,1.00
2022-09-28T12:24:27.697Z,0.90
2022-09-28T12:27:00.643Z,1.60
2022-09-28T12:29:33.748Z,0.93
2022-09-28T12:32:09.244Z,1.90
2022-09-28T12:34:37.497Z,1.55
2022-09-28T12:37:24.487Z,0.80
2022-09-28T12:40:23.167Z,3.58
2022-09-28T12:43:06.876Z,6.10
2022-09-28T12:46:10.553Z,3.35
2022-09-28T12:51:51.388Z,1.88
2022-09-28T12:54:44.441Z,1.40
2022-09-28T12:57:37.426Z,0.82
2022-09-28T13:00:09.444Z,0.90
2022-09-28T13:03:07.872Z,1.20
2022-09-28T13:06:08.930Z,2.50
2022-09-28T13:08:49.035Z,2.55
2022-09-28T13:11:23.442Z,1.23
2022-09-28T13:14:06.728Z,10.27
2022-09-28T13:16:43.630Z,9.13
2022-09-28T13:19:18.457Z,6.28
2022-09-28T13:21:55.727Z,8.90
2022-09-28T13:24:32.709Z,6.72
2022-09-28T13:27:08.485Z,6.07
2022-09-28T13:29:40.999Z,5.40
2022-09-28T13:32:12.552Z,4.75
2022-09-28T13:34:40.840Z,2.95
2022-09-28T13:37:24.179Z,3.25
2022-09-28T13:39:55.127Z,4.95
2022-09-28T13:42:42.220Z,3.83
2022-09-28T13:45:35.189Z,2.63
2022-09-28T13:48:15.330Z,2.80
2022-09-28T13:51:08.775Z,1.60
2022-09-28T13:53:47.738Z,1.02
2022-09-28T13:56:29.706Z,3.38
2022-09-28T13:59:03.045Z,8.95
2022-09-28T14:01:39.792Z,10.07
2022-09-28T14:04:19.678Z,5.20
2022-09-28T14:06:55.501Z,2.67
2022-09-28T14:09:28.064Z,2.67
2022-09-28T14:11:58.391Z,2.50
2022-09-28T14:14:46.023Z,1.33
2022-09-28T14:17:51.227Z,1.20
2022-09-28T14:20:26.577Z,1.17
2022-09-28T14:23:27.665Z,0.90
2022-09-28T14:26:21.102Z,1.67
2022-09-28T14:29:04.528Z,20.98
2022-09-28T14:31:35.229Z,23.88
2022-09-28T14:34:06.009Z,8.13
2022-09-28T14:36:59.633Z,3.40
2022-09-28T14:39:49.129Z,1.90
2022-09-28T14:42:20.707Z,1.10
2022-09-28T14:45:21.375Z,1.17
2022-09-28T14:48:15.193Z,1.40
2022-09-28T14:50:43.633Z,1.33
2022-09-28T14:53:16.508Z,1.00
2022-09-28T14:55:50.380Z,1.50
2022-09-28T14:58:25.159Z,1.58
2022-09-28T15:00:59.780Z,1.10
2022-09-28T15:03:31.104Z,0.93
2022-09-28T15:05:59.486Z,0.85
2022-09-28T15:08:39.544Z,0.90
2022-09-28T15:11:13.414Z,0.70
2022-09-28T15:13:41.686Z,0.70
2022-09-28T15:16:12.331Z,1.63
2022-09-28T15:19:09.010Z,0.95
2022-09-28T15:21:38.683Z,1.30
2022-09-28T15:24:30.620Z,1.25
2022-09-28T15:26:59.683Z,0.77
2022-09-28T15:29:31.318Z,0.70
2022-09-28T15:31:59.797Z,0.70
2022-09-28T15:34:49.328Z,0.75
2022-09-28T15:37:22.060Z,0.65
2022-09-28T15:39:53.794Z,0.63
2022-09-28T15:42:22.951Z,0.68
2022-09-28T15:45:03.574Z,0.60
2022-09-28T15:47:33.090Z,0.68
2022-09-28T15:50:03.026Z,0.70
2022-09-28T15:52:37.530Z,0.70
2022-09-28T15:55:20.584Z,0.70
2022-09-28T15:57:49.068Z,0.93
2022-09-28T16:00:28.797Z,0.77
2022-09-28T16:03:01.785Z,0.80
2022-09-28T16:05:37.439Z,0.60
2022-09-28T16:08:07.027Z,0.60
2022-09-28T16:10:37.152Z,0.60
2022-09-28T16:13:23.952Z,0.75
2022-09-28T16:15:59.768Z,0.63
2022-09-28T16:18:30.279Z,0.70
2022-09-28T16:21:21.432Z,7.22
2022-09-28T16:23:55.688Z,6.90
2022-09-28T16:26:32.322Z,2.08
2022-09-28T16:29:00.507Z,1.10
2022-09-28T16:31:34.785Z,0.77
2022-09-28T16:34:19.794Z,0.75
2022-09-28T16:36:49.741Z,0.80
2022-09-28T16:39:19.131Z,0.60
2022-09-28T16:41:52.835Z,0.70
2022-09-28T16:44:24.783Z,0.70
2022-09-28T16:49:25.609Z,0.50
2022-09-28T16:51:54.270Z,0.50
2022-09-28T16:54:41.919Z,0.73
2022-09-28T16:57:13.289Z,0.70
2022-09-28T16:59:41.478Z,0.50
2022-09-28T17:02:42.179Z,0.60
2022-09-28T17:05:07.938Z,0.70
2022-09-28T17:07:36.240Z,0.70
2022-09-28T17:10:04.704Z,0.57
2022-09-28T17:12:34.246Z,0.47
2022-09-28T17:15:02.513Z,0.98
2022-09-28T17:17:31.555Z,0.60
2022-09-28T17:19:59.780Z,0.68
2022-09-28T17:22:27.903Z,0.60
2022-09-28T17:24:56.298Z,0.63
2022-09-28T17:27:24.621Z,0.60
2022-09-28T17:29:55.260Z,0.65
2022-09-28T17:32:23.380Z,3.20
2022-09-28T17:35:00.737Z,14.80
2022-09-28T17:37:36.242Z,14.18
2022-09-28T17:40:08.789Z,17.65
2022-09-28T17:42:36.882Z,11.25
2022-09-28T17:45:08.174Z,6.50
2022-09-28T17:47:36.356Z,5.65
2022-09-28T17:50:11.700Z,40.13
2022-09-28T17:52:41.768Z,40.85
2022-09-28T17:55:10.859Z,20.02
2022-09-28T17:57:39.105Z,9.07
2022-09-28T18:00:10.906Z,4.95
2022-09-28T18:02:39.065Z,3.13
2022-09-28T18:05:07.692Z,1.65
2022-09-28T18:07:35.851Z,1.40
2022-09-28T18:10:04.195Z,19.38
2022-09-28T18:12:32.335Z,8.32
2022-09-28T18:15:00.474Z,5.65
2022-09-28T18:17:29.965Z,2.10
2022-09-28T18:19:58.088Z,1.98
2022-09-28T18:22:26.184Z,1.50
2022-09-28T18:24:54.277Z,1.70
2022-09-28T18:27:22.517Z,1.73
2022-09-28T18:29:50.586Z,2.45
2022-09-28T18:32:18.740Z,18.35
2022-09-28T18:34:48.177Z,38.15
2022-09-28T18:37:16.277Z,39.58
2022-09-28T18:39:44.759Z,34.13
2022-09-28T18:42:14.923Z,11.73
2022-09-28T18:44:43.109Z,4.15
2022-09-28T18:47:15.073Z,3.15
2022-09-28T18:52:16.375Z,5.32
2022-09-28T18:54:46.677Z,5.00
2022-09-28T18:57:15.263Z,3.15
2022-09-28T18:59:43.375Z,2.67
2022-09-28T19:02:11.921Z,2.45
2022-09-28T19:04:40.755Z,2.80
2022-09-28T19:07:09.460Z,3.60
2022-09-28T19:09:44.043Z,2.92
2022-09-28T19:12:12.232Z,3.75
2022-09-28T19:14:40.844Z,9.13
2022-09-28T19:17:10.045Z,11.80
2022-09-28T19:19:38.206Z,14.27
2022-09-28T19:22:06.727Z,12.95
2022-09-28T19:24:34.963Z,9.88
2022-09-28T19:27:04.619Z,7.15
2022-09-28T19:29:33.113Z,5.97
2022-09-28T19:32:01.462Z,6.18
2022-09-28T19:34:30.167Z,7.07
2022-09-28T19:36:58.534Z,6.22
2022-09-28T19:39:26.895Z,3.85
2022-09-28T19:41:57.567Z,4.53
2022-09-28T19:44:28.628Z,4.47
2022-09-28T19:46:58.535Z,2.50
2022-09-28T19:49:28.378Z,2.35
2022-09-28T19:52:14.620Z,2.00
2022-09-28T19:54:44.998Z,2.20
2022-09-28T19:57:14.442Z,1.80
2022-09-28T19:59:44.381Z,1.92
2022-09-28T20:02:13.358Z,1.70
2022-09-28T20:04:41.541Z,1.80
2022-09-28T20:07:09.781Z,1.30
2022-09-28T20:09:37.960Z,2.70
2022-09-28T20:12:06.279Z,22.50
2022-09-28T20:14:38.315Z,14.85
2022-09-28T20:17:10.626Z,7.00
2022-09-28T20:19:39.125Z,3.35
2022-09-28T20:22:07.598Z,3.33
2022-09-28T20:24:35.690Z,3.40
2022-09-28T20:27:03.800Z,7.82
2022-09-28T20:29:33.458Z,4.32
2022-09-28T20:32:02.199Z,2.83
2022-09-28T20:34:33.555Z,3.35
2022-09-28T20:37:01.897Z,3.30
2022-09-28T20:39:30.211Z,4.13
2022-09-28T20:41:59.526Z,4.78
2022-09-28T20:44:27.636Z,3.15
2022-09-28T20:46:56.232Z,2.85
2022-09-28T20:49:24.348Z,2.30
2022-09-28T20:51:53.906Z,3.05
2022-09-28T20:54:22.366Z,4.40
2022-09-28T20:56:50.441Z,10.43
2022-09-28T20:59:20.450Z,8.07
2022-09-28T21:01:48.689Z,9.93
2022-09-28T21:04:17.972Z,9.90
2022-09-28T21:06:46.253Z,6.38
2022-09-28T21:09:15.923Z,4.32
2022-09-28T21:11:44.133Z,3.25
2022-09-28T21:14:12.337Z,4.63
2022-09-28T21:16:40.591Z,3.90
2022-09-28T21:19:08.739Z,2.67
2022-09-28T21:21:36.841Z,4.05
2022-09-28T21:24:05.228Z,5.72
2022-09-28T21:26:35.156Z,4.95
2022-09-28T21:29:05.339Z,17.85
2022-09-28T21:31:38.680Z,14.35
2022-09-28T21:34:07.215Z,12.35
2022-09-28T21:36:35.659Z,16.92
2022-09-28T21:39:07.109Z,13.60
2022-09-28T21:41:40.049Z,7.68
2022-09-28T21:44:08.947Z,9.48
2022-09-28T21:46:38.172Z,13.40
2022-09-28T21:49:08.471Z,10.60
2022-09-28T21:51:37.580Z,7.05
2022-09-28T21:54:06.031Z,3.17
2022-09-28T21:56:34.317Z,2.17
2022-09-28T21:59:03.859Z,2.20
2022-09-28T22:01:32.046Z,1.70
2022-09-28T22:04:00.219Z,1.90
2022-09-28T22:06:29.254Z,1.70
2022-09-28T22:08:58.153Z,1.52
2022-09-28T22:11:28.392Z,1.27
2022-09-28T22:13:58.556Z,1.33
2022-09-28T22:16:30.015Z,1.45
2022-09-28T22:18:58.595Z,1.70
2022-09-28T22:21:28.418Z,1.67
2022-09-28T22:24:00.923Z,1.30
2022-09-28T22:26:30.972Z,1.85
2022-09-28T22:29:00.402Z,1.35
2022-09-28T22:31:32.345Z,1.88
2022-09-28T22:34:00.912Z,1.58
2022-09-28T22:36:29.771Z,1.55
2022-09-28T22:38:58.489Z,1.67
2022-09-28T22:41:27.120Z,1.58
2022-09-28T22:43:55.801Z,1.85
2022-09-28T22:46:25.962Z,1.85
2022-09-28T22:48:57.319Z,1.85
2022-09-28T22:51:26.865Z,1.80
2022-09-28T22:53:56.494Z,1.77
2022-09-28T22:56:25.044Z,2.00
2022-09-28T22:58:53.203Z,1.95
2022-09-28T23:01:23.298Z,1.90
2022-09-28T23:03:52.267Z,2.00
2022-09-28T23:06:23.864Z,1.92
2022-09-28T23:08:53.188Z,2.58
2022-09-28T23:11:21.650Z,2.38
2022-09-28T23:13:51.012Z,2.30
2022-09-28T23:16:20.001Z,1.85
2022-09-28T23:18:49.162Z,1.80
2022-09-28T23:21:19.822Z,2.25
2022-09-28T23:23:54.186Z,2.10
2022-09-28T23:26:24.550Z,1.85
2022-09-28T23:28:53.195Z,1.75
2022-09-28T23:31:23.799Z,1.90
2022-09-28T23:33:52.264Z,1.90
2022-09-28T23:36:20.423Z,2.22
2022-09-28T23:38:50.388Z,2.67
2022-09-28T23:41:19.016Z,2.10
2022-09-28T23:43:47.100Z,2.15
2022-09-28T23:46:20.441Z,2.00
2022-09-28T23:48:48.797Z,2.08
2022-09-28T23:51:16.956Z,2.03
2022-09-28T23:53:45.090Z,2.10
2022-09-28T23:56:15.443Z,2.42
2022-09-28T23:58:43.878Z,2.15
